createdAt,value
2022-10-18T00:01:37.595Z,5.64
2022-10-18T00:06:45.823Z,5.83
2022-10-18T00:11:59.513Z,5.53
2022-10-18T00:16:57.800Z,5.46
2022-10-18T00:22:05.830Z,5.93
2022-10-18T00:27:14.641Z,6.31
2022-10-18T00:32:34.031Z,7.27
2022-10-18T00:37:30.236Z,6.66
2022-10-18T00:42:31.115Z,7.06
2022-10-18T00:47:30.693Z,7.85
2022-10-18T00:52:29.094Z,7.54
2022-10-18T00:57:37.293Z,8.14
2022-10-18T01:02:45.604Z,7.63
2022-10-18T01:07:53.762Z,6.96
2022-10-18T01:13:03.009Z,8.04
2022-10-18T01:18:14.418Z,7.67
2022-10-18T01:23:12.535Z,7.04
2022-10-18T01:28:21.909Z,12.17
2022-10-18T01:33:18.165Z,11.76
2022-10-18T01:38:24.680Z,8.62
2022-10-18T01:43:30.944Z,11.68
2022-10-18T01:48:37.262Z,13.39
2022-10-18T01:53:43.483Z,8.85
2022-10-18T01:58:49.673Z,8.86
2022-10-18T02:03:56.033Z,9.27
2022-10-18T02:09:02.400Z,9.68
2022-10-18T02:14:08.846Z,9.98
2022-10-18T02:19:15.051Z,10.68
2022-10-18T02:24:21.281Z,12.05
2022-10-18T02:29:27.568Z,10.02
2022-10-18T02:34:33.879Z,10.18
2022-10-18T02:39:40.131Z,20.33
2022-10-18T02:44:46.568Z,13.57
2022-10-18T02:49:53.156Z,21.11
2022-10-18T02:55:00.620Z,19.34
2022-10-18T03:00:07.047Z,21.71
2022-10-18T03:05:13.342Z,13.70
2022-10-18T03:10:19.664Z,22.02
2022-10-18T03:15:25.876Z,14.04
2022-10-18T03:20:32.148Z,14.15
2022-10-18T03:25:40.550Z,14.03
2022-10-18T03:30:44.475Z,14.23
2022-10-18T03:35:50.929Z,13.26
2022-10-18T03:40:57.165Z,15.32
2022-10-18T03:46:03.536Z,16.23
2022-10-18T03:51:09.794Z,15.87
2022-10-18T03:56:17.229Z,23.85
2022-10-18T04:01:23.575Z,15.24
2022-10-18T04:06:29.765Z,12.94
2022-10-18T04:11:36.014Z,12.95
2022-10-18T04:16:42.327Z,12.55
2022-10-18T04:21:48.620Z,17.43
2022-10-18T04:26:55.133Z,10.44
2022-10-18T04:32:01.558Z,11.78
2022-10-18T04:37:07.875Z,12.11
2022-10-18T04:42:14.127Z,16.98
2022-10-18T04:47:21.035Z,10.66
2022-10-18T04:52:28.397Z,15.84
2022-10-18T04:57:34.938Z,11.31
2022-10-18T05:02:41.045Z,17.03
2022-10-18T05:07:47.319Z,17.02
2022-10-18T05:12:53.632Z,15.57
2022-10-18T05:17:59.985Z,10.87
2022-10-18T05:23:06.300Z,10.46
2022-10-18T05:28:34.041Z,15.12
2022-10-18T05:33:20.300Z,9.96
2022-10-18T05:38:26.699Z,10.65
2022-10-18T05:48:42.913Z,8.43
2022-10-18T05:53:49.357Z,13.54
2022-10-18T05:58:55.699Z,9.59
2022-10-18T06:04:02.060Z,13.68
2022-10-18T06:09:08.359Z,8.90
2022-10-18T06:14:14.700Z,13.81
2022-10-18T06:19:21.026Z,10.49
2022-10-18T06:24:27.497Z,14.04
2022-10-18T06:29:33.817Z,13.01
2022-10-18T06:34:40.531Z,9.24
2022-10-18T06:39:46.833Z,8.75
2022-10-18T06:44:53.018Z,8.57
2022-10-18T06:49:59.289Z,9.39
2022-10-18T06:55:09.067Z,8.98
2022-10-18T07:00:11.494Z,12.64
2022-10-18T07:05:17.821Z,12.04
2022-10-18T07:10:24.240Z,8.12
2022-10-18T07:15:30.367Z,7.03
2022-10-18T07:20:36.647Z,7.25
2022-10-18T07:25:42.909Z,10.67
2022-10-18T07:30:49.237Z,7.15
2022-10-18T07:35:55.610Z,6.74
2022-10-18T07:41:02.040Z,6.63
2022-10-18T07:46:08.424Z,5.93
2022-10-18T07:51:14.694Z,6.70
2022-10-18T07:56:21.564Z,5.71
2022-10-18T08:01:27.798Z,7.50
2022-10-18T08:06:33.996Z,9.27
2022-10-18T08:11:40.253Z,9.59
2022-10-18T08:16:46.543Z,9.38
2022-10-18T08:21:53.079Z,8.66
2022-10-18T08:26:59.390Z,12.16
2022-10-18T08:32:05.802Z,8.14
2022-10-18T08:37:12.268Z,7.17
2022-10-18T08:42:18.504Z,6.25
2022-10-18T08:47:24.975Z,9.80
2022-10-18T08:52:31.259Z,6.27
2022-10-18T08:57:37.506Z,10.18
2022-10-18T09:02:43.828Z,6.78
2022-10-18T09:07:50.082Z,6.19
2022-10-18T09:12:56.358Z,6.65
2022-10-18T09:18:02.634Z,7.08
2022-10-18T09:23:08.843Z,7.00
2022-10-18T09:28:15.500Z,6.35
2022-10-18T09:33:21.830Z,6.47
2022-10-18T09:38:28.162Z,7.01
2022-10-18T09:43:34.393Z,9.28
2022-10-18T09:48:40.638Z,7.22
2022-10-18T09:53:46.969Z,7.02
2022-10-18T09:58:53.272Z,7.61
2022-10-18T10:03:59.533Z,7.14
2022-10-18T10:09:08.816Z,5.27
2022-10-18T10:19:20.877Z,4.45
2022-10-18T10:24:30.325Z,2.73
2022-10-18T10:29:43.958Z,1.81
2022-10-18T10:34:41.074Z,2.71
2022-10-18T10:39:51.192Z,2.76
2022-10-18T10:44:50.400Z,2.10
2022-10-18T10:49:56.642Z,2.72
2022-10-18T10:55:30.459Z,4.59
2022-10-18T11:00:10.136Z,3.25
2022-10-18T11:05:16.437Z,4.69
2022-10-18T11:10:22.716Z,2.97
2022-10-18T11:15:28.957Z,5.46
2022-10-18T11:20:35.377Z,3.70
2022-10-18T11:25:41.706Z,3.49
2022-10-18T11:30:48.056Z,3.61
2022-10-18T11:35:54.502Z,3.89
2022-10-18T11:41:00.887Z,4.48
2022-10-18T11:46:07.299Z,6.10
2022-10-18T11:51:13.554Z,6.94
2022-10-18T11:56:21.232Z,7.07
2022-10-18T12:01:28.674Z,6.09
2022-10-18T12:06:33.607Z,8.43
2022-10-18T12:11:42.917Z,8.65
2022-10-18T12:16:51.402Z,7.86
2022-10-18T12:21:52.701Z,5.68
2022-10-18T12:26:59.088Z,6.15
2022-10-18T12:32:05.441Z,7.19
2022-10-18T12:37:11.764Z,11.29
2022-10-18T12:42:18.117Z,8.61
2022-10-18T12:47:24.540Z,12.48
2022-10-18T12:52:32.135Z,8.54
2022-10-18T12:57:40.246Z,13.02
2022-10-18T13:02:45.687Z,8.90
2022-10-18T13:07:51.993Z,9.14
2022-10-18T13:12:59.843Z,12.49
2022-10-18T13:18:06.134Z,7.70
2022-10-18T13:23:13.683Z,8.06
2022-10-18T13:28:20.119Z,9.19
2022-10-18T13:33:26.851Z,8.53
2022-10-18T13:38:33.216Z,9.42
2022-10-18T13:43:41.704Z,10.47
2022-10-18T13:48:48.166Z,9.99
2022-10-18T13:53:55.378Z,10.10
2022-10-18T13:59:13.710Z,9.49
2022-10-18T14:04:07.665Z,14.36
2022-10-18T14:09:25.719Z,16.39
2022-10-18T14:14:21.380Z,12.74
2022-10-18T14:19:27.672Z,21.49
2022-10-18T14:24:33.978Z,16.04
2022-10-18T14:29:46.335Z,18.14
2022-10-18T14:34:40.522Z,19.46
2022-10-18T14:39:48.290Z,19.09
2022-10-18T14:44:56.604Z,17.59
2022-10-18T14:50:03.264Z,16.66
2022-10-18T14:55:09.531Z,16.94
2022-10-18T15:00:16.877Z,17.18
2022-10-18T15:05:25.307Z,16.55
2022-10-18T15:10:32.833Z,16.44
2022-10-18T15:15:38.728Z,14.80
2022-10-18T15:20:45.075Z,14.49
2022-10-18T15:25:51.537Z,13.56
2022-10-18T15:30:57.972Z,19.29
2022-10-18T15:36:04.172Z,20.38
2022-10-18T15:41:18.351Z,19.67
2022-10-18T15:46:16.004Z,13.92
2022-10-18T15:51:26.096Z,14.18
2022-10-18T15:56:33.011Z,14.10
2022-10-18T16:01:46.457Z,12.57
2022-10-18T16:06:44.475Z,11.33
2022-10-18T16:11:55.833Z,16.20
2022-10-18T16:17:02.587Z,11.09
2022-10-18T16:22:05.202Z,11.32
2022-10-18T16:27:05.736Z,9.95
2022-10-18T16:32:12.258Z,9.61
2022-10-18T16:37:18.599Z,9.68
2022-10-18T16:42:24.951Z,15.52
2022-10-18T16:47:31.251Z,10.17
2022-10-18T16:52:37.653Z,9.85
2022-10-18T16:57:44.032Z,10.11
2022-10-18T17:02:50.576Z,14.56
2022-10-18T17:07:57.005Z,14.77
2022-10-18T17:13:04.201Z,10.49
2022-10-18T17:18:11.660Z,10.89
2022-10-18T17:23:18.233Z,10.73
2022-10-18T17:28:27.784Z,9.73
2022-10-18T17:33:34.070Z,9.47
2022-10-18T17:38:41.523Z,9.85
2022-10-18T17:43:48.002Z,11.72
2022-10-18T17:48:54.341Z,7.33
2022-10-18T17:54:02.300Z,6.95
2022-10-18T17:59:08.527Z,7.00
2022-10-18T18:04:14.924Z,6.43
2022-10-18T18:09:21.234Z,5.61
2022-10-18T18:14:30.276Z,5.26
2022-10-18T18:19:36.855Z,6.45
2022-10-18T18:24:46.090Z,8.89
2022-10-18T18:29:53.584Z,5.05
2022-10-18T18:35:01.126Z,5.84
2022-10-18T18:40:08.518Z,5.60
2022-10-18T18:45:15.935Z,5.85
2022-10-18T18:50:29.365Z,6.41
2022-10-18T18:55:35.160Z,5.96
2022-10-18T19:00:31.688Z,6.25
2022-10-18T19:05:37.959Z,8.91
2022-10-18T19:10:44.270Z,5.80
2022-10-18T19:15:51.714Z,5.26
2022-10-18T19:20:57.997Z,5.89
2022-10-18T19:26:08.536Z,6.76
2022-10-18T19:31:04.557Z,5.93
2022-10-18T19:36:11.154Z,5.11
2022-10-18T19:41:18.888Z,5.40
2022-10-18T19:46:25.208Z,5.62
2022-10-18T19:51:32.413Z,8.34
2022-10-18T19:56:40.010Z,8.04
2022-10-18T20:01:46.333Z,13.92
2022-10-18T20:06:53.609Z,15.43
2022-10-18T20:12:01.153Z,10.61
2022-10-18T20:17:07.549Z,12.24
2022-10-18T20:22:14.935Z,9.86
2022-10-18T20:27:21.206Z,10.19
2022-10-18T20:32:28.768Z,9.66
2022-10-18T20:37:35.553Z,13.62
2022-10-18T20:42:42.327Z,16.46
2022-10-18T20:47:48.587Z,9.34
2022-10-18T20:52:54.929Z,11.94
2022-10-18T20:58:01.233Z,12.64
2022-10-18T21:03:09.029Z,17.68
2022-10-18T21:08:15.875Z,11.32
2022-10-18T21:13:22.227Z,12.79
2022-10-18T21:18:28.673Z,21.81
2022-10-18T21:23:35.019Z,14.34
2022-10-18T21:28:41.798Z,16.97
2022-10-18T21:33:47.994Z,10.50
2022-10-18T21:38:54.322Z,14.40
2022-10-18T21:44:00.857Z,9.69
2022-10-18T21:49:07.293Z,9.98
2022-10-18T21:54:13.510Z,9.86
2022-10-18T21:59:20.028Z,9.33
2022-10-18T22:04:26.381Z,13.77
2022-10-18T22:09:32.903Z,9.97
2022-10-18T22:14:39.147Z,13.63
2022-10-18T22:19:45.643Z,9.17
2022-10-18T22:24:52.072Z,12.46
2022-10-18T22:29:59.637Z,10.35
2022-10-18T22:35:05.978Z,8.86
2022-10-18T22:40:12.372Z,8.08
2022-10-18T22:45:18.703Z,9.61
2022-10-18T22:50:25.086Z,8.97
2022-10-18T22:55:31.382Z,8.17
2022-10-18T23:05:43.711Z,11.92
2022-10-18T23:10:50.090Z,7.65
2022-10-18T23:15:56.493Z,6.89
2022-10-18T23:21:02.750Z,5.52
2022-10-18T23:26:09.228Z,7.39
2022-10-18T23:31:15.497Z,10.11
2022-10-18T23:36:21.897Z,10.18
2022-10-18T23:41:28.495Z,6.88
2022-10-18T23:46:36.034Z,6.02
2022-10-18T23:51:42.533Z,10.02
2022-10-18T23:56:48.783Z,8.12
